Martin, GA

3:26 PM EST on February 09, 2016 (GMT -0500)
TUGALOO RIVER | | Change Station
CLOSE
Current Station
Personal Weather Stations
Location: OCONEE, SC
Elevation: 665 ft
Nearby Weather Stations

Elev 665 ft 34.58 °N, 83.14 °W | Updated 1 minute ago

흐림
흐림
37.1 °F
Feels Like 37 °F
N
2.0
바람 Variable 바람 from 북북동
Gusts 4.0 mph

오늘
High -- | Low -- °F
--% Chance of Precip.
어제
High -- | Low -- °F
Precip. -- 인치
기압 29.77 인치
가시도 10.0 마일
구름 대체로 맑음 4500 ft
흐림 6000 ft
풍속냉각지수 37 °F
이슬점 23 °F
습도 56%
Rainfall 0.00 인치
Snow Depth Not available.
7:24 AM 6:09 PM
합삭, 2% visible
METAR KTOC 092015Z AUTO 31007G18KT 10SM SCT045 OVC060 02/M06 A2977 RMK AO2 T00241056
기압 29.77 인치
가시도 10.0 마일
구름 대체로 맑음 4500 ft
흐림 6000 ft
풍속냉각지수 37 °F
이슬점 23 °F
습도 56%
Rainfall 0.00 인치
Snow Depth Not available.
7:24 AM 6:09 PM
합삭, 2% visible
METAR KTOC 092015Z AUTO 31007G18KT 10SM SCT045 OVC060 02/M06 A2977 RMK AO2 T00241056

10-Day Weather Forecast

Almanac

천문

Feb. 09, 2016 Rise Set
Actual Time
Civil Twilight
Nautical Twilight
Astronomical Twilight
Moon
Length Of Visible Light
낮 길이
Tomorrow will be .
, % of the Moon is Illuminated

Today's Extremes

State Highs State Lows

Community

WunderPhotos

Upload Photos

1,891,679 photos uploaded!

WunderBlog® & News

Nearby

에어 품질

  에어 품질 AQ Index Pollutant
Not available.

Snow Depth

Station Depth Elevation

Earthquake Activity

City Distance Mag. Time & Date
Minimum magnitude displayed is 2.5.

Coastal Water Temperatures

장소 기온

Stations

Nearby Weather Stations

Station Location Temp 풍속냉각지수 이슬점 습도 바람 Precip. Elev 업데이트 시각 Type
                   

Watches & Warnings

There are currently no watches in effect.